Time;durP1;ratioP1;P1;durP2;ratioP2;P2;SDS_P1;SDS_P2;PMS_P1;PMS_P2;Temp;Humidity;BMP_temperature;BMP_pressure;BME280_temperature;BME280_humidity;BME280_pressure;Samples;Min_cycle;Max_cycle;Signal;HPM_P1;HPM_P2
2023/05/24 00:00:28;;;;;;;4.22;1.60;;;12.40;99.90;;;;;;4988900;28;20327;-67
2023/05/24 00:02:54;;;;;;;3.70;1.40;;;12.40;99.90;;;;;;4996050;28;20194;-66
2023/05/24 00:05:19;;;;;;;3.85;1.70;;;12.40;99.90;;;;;;4989776;28;20211;-66
2023/05/24 00:07:45;;;;;;;5.38;1.73;;;12.30;99.90;;;;;;4990973;28;20194;-65
2023/05/24 00:10:11;;;;;;;5.35;1.80;;;12.30;99.90;;;;;;4993270;28;20183;-65
2023/05/24 00:12:39;;;;;;;4.72;1.63;;;12.30;99.90;;;;;;4990750;28;20262;-66
2023/05/24 00:15:05;;;;;;;3.78;1.70;;;12.20;99.90;;;;;;4992497;28;20183;-66
2023/05/24 00:17:31;;;;;;;6.15;1.88;;;12.20;99.90;;;;;;4991537;28;20190;-66
2023/05/24 00:19:57;;;;;;;3.80;1.40;;;12.20;99.90;;;;;;4994455;28;20179;-64
2023/05/24 00:22:25;;;;;;;5.13;1.70;;;12.20;99.90;;;;;;4991617;28;20191;-66
2023/05/24 00:24:50;;;;;;;3.92;1.50;;;12.20;99.90;;;;;;4992839;28;20187;-64
2023/05/24 00:27:16;;;;;;;3.55;1.48;;;12.10;99.90;;;;;;5000627;28;20206;-66
2023/05/24 00:29:42;;;;;;;5.25;1.80;;;12.10;99.90;;;;;;4992715;28;20192;-66
2023/05/24 00:32:09;;;;;;;5.15;1.80;;;12.10;99.90;;;;;;4988811;28;20180;-67
2023/05/24 00:34:35;;;;;;;4.28;1.58;;;12.00;99.90;;;;;;4997242;28;20196;-66
2023/05/24 00:37:06;;;;;;;3.75;1.60;;;12.00;99.90;;;;;;4993323;28;20182;-66
2023/05/24 00:39:32;;;;;;;4.00;1.45;;;12.00;99.90;;;;;;4988871;28;20194;-66
2023/05/24 00:41:57;;;;;;;5.22;1.40;;;11.90;99.90;;;;;;4994442;28;20163;-66
2023/05/24 00:44:23;;;;;;;3.03;1.27;;;11.90;99.90;;;;;;4994026;28;20171;-66
2023/05/24 00:46:48;;;;;;;4.05;1.50;;;11.80;99.90;;;;;;4992726;28;20179;-66
2023/05/24 00:49:19;;;;;;;3.92;1.30;;;11.80;99.90;;;;;;4995162;28;20183;-66
2023/05/24 00:51:45;;;;;;;5.00;1.63;;;11.80;99.90;;;;;;4978972;28;20187;-66
2023/05/24 00:54:12;;;;;;;5.07;1.55;;;11.80;99.90;;;;;;4983336;28;20202;-66
2023/05/24 00:56:38;;;;;;;3.83;1.60;;;11.80;99.90;;;;;;4994435;28;20175;-67
2023/05/24 00:59:06;;;;;;;5.43;1.50;;;11.70;99.90;;;;;;4991379;28;20172;-66
2023/05/24 01:01:37;;;;;;;5.18;1.45;;;11.70;99.90;;;;;;4980371;28;20187;-66
2023/05/24 01:04:06;;;;;;;2.80;1.27;;;11.70;99.90;;;;;;4993127;28;20184;-66
2023/05/24 01:06:45;;;;;;;5.25;1.58;;;11.60;99.90;;;;;;4990472;28;20234;-66
2023/05/24 01:09:34;;;;;;;2.53;1.30;;;11.60;99.90;;;;;;4987146;28;20179;-66
2023/05/24 01:12:08;;;;;;;5.90;1.52;;;11.50;99.90;;;;;;4991490;28;20207;-66
2023/05/24 01:17:13;;;;;;;3.95;1.30;;;11.50;99.90;;;;;;5013086;22;20252;-65
2023/05/24 01:20:01;;;;;;;3.67;1.58;;;11.50;99.90;;;;;;4945562;28;20180;-65
2023/05/24 01:22:47;;;;;;;4.35;1.30;;;11.40;99.90;;;;;;4953909;28;20180;-62
2023/05/24 01:25:32;;;;;;;2.60;1.33;;;11.40;99.90;;;;;;4953879;28;20199;-65
2023/05/24 01:27:59;;;;;;;4.47;1.40;;;11.30;99.90;;;;;;4958654;28;20207;-65
2023/05/24 01:30:28;;;;;;;5.07;1.88;;;11.30;99.90;;;;;;4958463;28;20187;-65
2023/05/24 01:32:56;;;;;;;4.07;1.40;;;11.30;99.90;;;;;;4959513;28;20235;-65
2023/05/24 01:35:24;;;;;;;2.92;1.13;;;11.20;99.90;;;;;;4958596;28;20263;-65
2023/05/24 01:37:50;;;;;;;4.88;1.55;;;11.20;99.90;;;;;;4958560;28;20183;-65
2023/05/24 01:40:15;;;;;;;5.45;1.50;;;11.10;99.90;;;;;;4976214;28;20196;-65
2023/05/24 01:42:53;;;;;;;2.85;1.10;;;11.10;99.90;;;;;;4958607;28;20195;-64
2023/05/24 01:45:28;;;;;;;4.45;1.33;;;11.10;99.90;;;;;;4959761;28;20203;-65
2023/05/24 01:48:17;;;;;;;3.90;1.48;;;11.10;99.90;;;;;;4972516;28;20283;-65
2023/05/24 01:51:16;;;;;;;5.03;1.50;;;11.10;99.90;;;;;;4948979;29;20441;-65
2023/05/24 01:53:47;;;;;;;5.82;1.13;;;11.00;99.90;;;;;;4933278;28;20209;-64
2023/05/24 01:56:16;;;;;;;4.80;1.40;;;11.00;99.90;;;;;;4949458;29;20263;-65
2023/05/24 01:58:46;;;;;;;5.40;1.63;;;11.00;99.90;;;;;;4950399;28;20187;-65
2023/05/24 02:01:15;;;;;;;5.22;1.40;;;10.90;99.90;;;;;;4965443;28;20195;-65
2023/05/24 02:03:42;;;;;;;4.27;1.50;;;10.90;99.90;;;;;;4959911;28;20212;-65
2023/05/24 02:06:10;;;;;;;2.73;1.30;;;10.90;99.90;;;;;;4958487;28;20208;-65
2023/05/24 02:08:39;;;;;;;4.13;1.35;;;10.90;99.90;;;;;;4944501;28;20208;-65
2023/05/24 02:11:07;;;;;;;3.70;1.50;;;10.80;99.90;;;;;;4958405;28;20176;-65
2023/05/24 02:13:32;;;;;;;5.10;1.93;;;10.80;99.90;;;;;;4956733;28;20291;-65
2023/05/24 02:15:58;;;;;;;4.70;1.57;;;10.80;99.90;;;;;;4959173;28;20238;-65
2023/05/24 02:18:24;;;;;;;5.20;1.50;;;10.70;99.90;;;;;;4955582;28;20176;-65
2023/05/24 02:20:50;;;;;;;3.70;1.33;;;10.70;99.90;;;;;;4957250;28;20226;-65
2023/05/24 02:23:17;;;;;;;5.67;1.60;;;10.70;99.90;;;;;;4959004;28;20295;-66
2023/05/24 02:25:45;;;;;;;2.93;1.33;;;10.70;99.90;;;;;;4954464;29;20180;-64
2023/05/24 02:28:11;;;;;;;4.60;1.40;;;10.60;99.90;;;;;;4950820;28;20255;-65
2023/05/24 02:30:37;;;;;;;4.30;1.70;;;10.60;99.90;;;;;;4961004;28;20207;-65
2023/05/24 02:33:03;;;;;;;4.33;1.40;;;10.60;99.90;;;;;;4961584;28;20192;-65
2023/05/24 02:35:28;;;;;;;2.37;1.27;;;10.60;99.90;;;;;;4951538;29;20180;-65
2023/05/24 02:37:57;;;;;;;4.23;1.27;;;10.50;99.90;;;;;;4955380;28;20303;-64
2023/05/24 02:40:27;;;;;;;4.67;1.33;;;10.50;99.90;;;;;;4958395;28;20196;-65
2023/05/24 02:42:53;;;;;;;3.23;1.40;;;10.50;99.90;;;;;;4962318;28;20184;-65
2023/05/24 02:45:19;;;;;;;2.07;1.47;;;10.50;99.90;;;;;;4960790;28;20199;-65
2023/05/24 02:47:45;;;;;;;3.50;1.50;;;10.40;99.90;;;;;;4960726;28;20180;-65
2023/05/24 02:50:11;;;;;;;3.90;1.40;;;10.40;99.90;;;;;;4960897;28;20188;-62
2023/05/24 02:52:36;;;;;;;3.60;1.40;;;10.40;99.90;;;;;;4953311;28;20208;-65
2023/05/24 02:55:07;;;;;;;4.30;1.40;;;10.30;99.90;;;;;;4962049;28;20187;-65
2023/05/24 02:57:36;;;;;;;6.77;1.40;;;10.30;99.90;;;;;;4959114;28;20181;-63
2023/05/24 03:00:08;;;;;;;2.50;1.20;;;10.30;99.90;;;;;;4956003;28;20291;-64
2023/05/24 03:02:37;;;;;;;3.60;1.47;;;10.30;99.90;;;;;;4976403;28;20190;-65
2023/05/24 03:05:05;;;;;;;4.87;1.53;;;10.30;99.90;;;;;;4955376;28;20273;-64
2023/05/24 03:07:30;;;;;;;3.53;1.20;;;10.20;99.90;;;;;;4954785;28;20215;-64
2023/05/24 03:09:56;;;;;;;4.83;1.40;;;10.30;99.90;;;;;;4960142;28;20175;-65
2023/05/24 03:12:21;;;;;;;3.77;1.50;;;10.20;99.90;;;;;;4960939;28;20200;-65
2023/05/24 03:14:50;;;;;;;3.87;1.07;;;10.20;99.90;;;;;;4955739;28;20211;-66
2023/05/24 03:17:15;;;;;;;2.80;1.30;;;10.10;99.90;;;;;;4944185;29;20201;-67
2023/05/24 03:19:41;;;;;;;3.67;1.40;;;10.10;99.90;;;;;;4958038;28;20180;-66
2023/05/24 03:22:07;;;;;;;3.83;1.50;;;10.10;99.90;;;;;;4954256;28;20204;-66
2023/05/24 03:24:37;;;;;;;6.50;1.40;;;10.10;99.90;;;;;;4961791;28;20280;-67
2023/05/24 03:27:04;;;;;;;3.63;1.37;;;10.00;99.90;;;;;;4960681;28;20176;-65
2023/05/24 03:29:30;;;;;;;4.30;1.47;;;10.00;99.90;;;;;;4960075;28;20254;-66
2023/05/24 03:31:58;;;;;;;5.83;1.40;;;10.00;99.90;;;;;;4965355;28;20180;-65
2023/05/24 03:34:24;;;;;;;4.17;1.43;;;9.90;99.90;;;;;;4958912;28;20232;-65
2023/05/24 03:36:49;;;;;;;3.03;1.43;;;9.90;99.90;;;;;;4943141;28;20530;-65
2023/05/24 03:39:15;;;;;;;4.77;1.53;;;9.90;99.90;;;;;;4941985;28;20251;-66
2023/05/24 03:41:41;;;;;;;6.73;1.60;;;9.90;99.90;;;;;;4941381;29;20197;-65
2023/05/24 03:44:07;;;;;;;5.27;1.73;;;9.90;99.90;;;;;;4960107;28;20243;-66
2023/05/24 03:46:34;;;;;;;3.27;1.53;;;9.80;99.90;;;;;;4956309;29;20188;-66
2023/05/24 03:49:05;;;;;;;4.23;1.50;;;9.80;99.90;;;;;;4952847;28;20187;-66
2023/05/24 03:51:33;;;;;;;2.70;1.40;;;9.70;99.90;;;;;;4941738;29;20205;-66
2023/05/24 03:54:01;;;;;;;6.07;1.70;;;9.80;99.90;;;;;;4949623;29;20375;-66
2023/05/24 03:56:29;;;;;;;4.80;1.60;;;9.80;99.90;;;;;;4951552;28;20219;-64
2023/05/24 03:58:56;;;;;;;9.30;1.60;;;9.80;99.90;;;;;;4960103;28;20217;-66
2023/05/24 04:01:22;;;;;;;3.20;1.40;;;9.70;99.90;;;;;;4951259;29;20267;-65
2023/05/24 04:03:50;;;;;;;4.50;1.50;;;9.70;99.90;;;;;;4959420;28;20200;-66
2023/05/24 04:06:15;;;;;;;3.73;1.50;;;9.70;99.90;;;;;;4958663;28;20266;-65
2023/05/24 04:08:43;;;;;;;3.63;1.60;;;9.70;99.90;;;;;;4956782;29;20184;-65
2023/05/24 04:11:09;;;;;;;4.60;1.63;;;9.60;99.90;;;;;;4959182;28;20236;-65
2023/05/24 04:13:37;;;;;;;5.13;1.97;;;9.70;99.90;;;;;;4955755;29;20236;-66
2023/05/24 04:16:08;;;;;;;3.93;1.77;;;9.60;99.90;;;;;;4958647;28;20192;-66
2023/05/24 04:18:34;;;;;;;3.37;1.60;;;9.60;99.90;;;;;;4950809;28;20276;-65
2023/05/24 04:20:59;;;;;;;3.50;1.70;;;9.50;99.90;;;;;;4957981;28;20518;-66
2023/05/24 04:23:25;;;;;;;4.03;1.60;;;9.50;99.90;;;;;;4951621;28;20235;-66
2023/05/24 04:25:50;;;;;;;4.63;1.77;;;9.50;99.90;;;;;;4956717;29;20188;-66
2023/05/24 04:28:16;;;;;;;4.77;1.87;;;9.50;99.90;;;;;;4958865;28;20172;-66
2023/05/24 04:30:44;;;;;;;5.07;2.10;;;9.40;99.90;;;;;;4958140;28;20183;-66
2023/05/24 04:33:10;;;;;;;4.57;2.30;;;9.50;99.90;;;;;;4956587;29;20299;-65
2023/05/24 04:35:39;;;;;;;4.30;2.10;;;9.50;99.90;;;;;;4949188;28;20196;-67
2023/05/24 04:38:05;;;;;;;3.83;2.03;;;9.60;99.90;;;;;;4947814;28;20183;-65
2023/05/24 04:40:30;;;;;;;5.80;2.10;;;9.60;99.90;;;;;;4957807;28;20176;-65
2023/05/24 04:42:58;;;;;;;4.97;2.63;;;9.60;99.90;;;;;;4958502;28;20207;-65
2023/05/24 04:45:26;;;;;;;7.73;2.87;;;9.70;99.90;;;;;;4956113;28;20204;-65
2023/05/24 04:47:52;;;;;;;6.67;2.40;;;9.70;99.90;;;;;;4955291;28;20215;-64
2023/05/24 04:50:18;;;;;;;6.23;2.10;;;9.80;99.90;;;;;;4958772;28;20218;-64
2023/05/24 04:52:45;;;;;;;4.80;1.87;;;9.80;99.90;;;;;;4952552;28;20294;-66
2023/05/24 04:55:13;;;;;;;6.30;2.27;;;9.90;99.90;;;;;;4960509;28;20456;-65
2023/05/24 04:57:41;;;;;;;3.67;2.07;;;9.90;99.90;;;;;;4957665;28;20187;-64
2023/05/24 05:00:09;;;;;;;4.53;2.20;;;9.90;99.90;;;;;;4950946;28;20351;-65
2023/05/24 05:02:36;;;;;;;4.80;1.80;;;9.90;99.90;;;;;;4954733;28;20188;-65
2023/05/24 05:05:02;;;;;;;4.40;1.90;;;9.90;99.90;;;;;;4953989;28;20201;-66
2023/05/24 05:07:28;;;;;;;5.33;1.90;;;10.00;99.90;;;;;;4955077;28;20203;-65
2023/05/24 05:09:53;;;;;;;4.53;2.00;;;10.00;99.90;;;;;;4956316;28;20229;-66
2023/05/24 05:12:24;;;;;;;8.27;2.23;;;10.10;99.90;;;;;;4958101;28;20270;-65
2023/05/24 05:14:49;;;;;;;7.27;2.10;;;10.10;99.90;;;;;;4976377;28;20180;-65
2023/05/24 05:17:17;;;;;;;5.77;2.37;;;10.20;99.90;;;;;;4959220;28;20176;-65
2023/05/24 05:19:42;;;;;;;5.00;2.10;;;10.10;99.90;;;;;;4935766;28;20180;-66
2023/05/24 05:22:10;;;;;;;3.27;1.97;;;10.20;99.90;;;;;;4956321;29;20371;-65
2023/05/24 05:24:38;;;;;;;5.97;2.20;;;10.20;99.90;;;;;;4953293;28;20188;-67
2023/05/24 05:27:07;;;;;;;4.57;2.00;;;10.30;99.90;;;;;;4955928;28;20179;-65
2023/05/24 05:29:37;;;;;;;5.57;2.00;;;10.30;99.90;;;;;;4959495;28;20243;-65
2023/05/24 05:32:03;;;;;;;3.80;2.00;;;10.40;99.90;;;;;;4959820;28;20172;-66
2023/05/24 05:34:28;;;;;;;5.20;2.23;;;10.40;99.90;;;;;;4959494;28;20204;-66
2023/05/24 05:36:56;;;;;;;8.40;2.38;;;10.50;99.90;;;;;;4959698;28;20238;-66
2023/05/24 05:39:22;;;;;;;5.72;2.53;;;10.50;99.90;;;;;;4959553;28;20230;-66
2023/05/24 05:41:47;;;;;;;7.20;2.30;;;10.60;99.90;;;;;;4959131;28;20184;-66
2023/05/24 05:44:13;;;;;;;5.32;2.10;;;10.70;99.90;;;;;;4959170;28;20187;-66
2023/05/24 05:46:39;;;;;;;6.87;2.00;;;10.80;99.90;;;;;;4959372;28;20184;-66
2023/05/24 05:49:05;;;;;;;7.00;2.15;;;10.80;99.90;;;;;;4959524;28;20239;-65
2023/05/24 05:51:31;;;;;;;6.20;2.20;;;11.00;99.90;;;;;;4959464;28;20176;-67
2023/05/24 05:53:59;;;;;;;3.92;1.95;;;11.00;99.90;;;;;;4954889;29;20258;-65
2023/05/24 05:56:26;;;;;;;5.10;2.20;;;11.00;99.90;;;;;;4940156;28;20235;-63
2023/05/24 05:58:54;;;;;;;5.80;2.28;;;11.10;99.90;;;;;;4943091;29;20271;-65
2023/05/24 06:01:24;;;;;;;7.18;2.20;;;11.10;99.90;;;;;;4954006;28;20184;-65
2023/05/24 06:03:50;;;;;;;7.22;2.38;;;11.20;99.90;;;;;;4955316;28;20183;-64
2023/05/24 06:06:16;;;;;;;6.45;2.30;;;11.20;99.90;;;;;;4961853;28;20184;-64
2023/05/24 06:08:41;;;;;;;7.55;2.67;;;11.10;99.90;;;;;;4960222;28;20194;-64
2023/05/24 06:11:07;;;;;;;5.38;2.25;;;11.20;99.90;;;;;;4971183;28;20187;-64
2023/05/24 06:13:33;;;;;;;8.07;2.30;;;11.30;99.90;;;;;;4947819;28;20263;-64
2023/05/24 06:16:00;;;;;;;6.80;2.53;;;11.30;99.90;;;;;;4958828;29;20203;-65
2023/05/24 06:18:29;;;;;;;7.65;2.72;;;11.40;99.90;;;;;;4956497;28;20280;-64
2023/05/24 06:20:54;;;;;;;7.80;2.35;;;11.50;99.90;;;;;;4950803;28;20199;-65
2023/05/24 06:23:22;;;;;;;10.30;3.03;;;11.40;99.90;;;;;;4962643;28;20183;-65
2023/05/24 06:25:50;;;;;;;7.90;2.60;;;11.50;99.90;;;;;;4960778;28;20200;-64
2023/05/24 06:28:16;;;;;;;7.40;2.60;;;11.50;99.90;;;;;;4953770;28;20177;-65
2023/05/24 06:30:42;;;;;;;3.97;2.10;;;11.60;99.90;;;;;;4959000;28;20211;-65
2023/05/24 06:33:07;;;;;;;7.32;3.50;;;11.60;99.90;;;;;;4950829;28;20196;-65
2023/05/24 06:35:33;;;;;;;13.32;3.45;;;11.60;99.90;;;;;;4962567;28;20195;-64
2023/05/24 06:37:59;;;;;;;8.68;3.15;;;11.60;99.90;;;;;;4961756;28;20180;-65
2023/05/24 06:40:24;;;;;;;7.05;2.83;;;11.70;99.90;;;;;;4962134;28;20172;-65
2023/05/24 06:42:50;;;;;;;9.13;2.35;;;11.70;99.90;;;;;;4965865;28;20225;-65
2023/05/24 06:45:16;;;;;;;7.97;3.05;;;11.80;99.90;;;;;;4957129;28;20199;-65
2023/05/24 06:47:41;;;;;;;8.10;2.58;;;11.90;99.90;;;;;;4958455;29;20204;-65
2023/05/24 06:50:08;;;;;;;7.72;2.42;;;11.90;99.90;;;;;;4961065;28;20266;-65
2023/05/24 06:52:34;;;;;;;8.02;2.40;;;12.00;99.90;;;;;;4956802;28;20204;-65
2023/05/24 06:55:01;;;;;;;12.38;3.50;;;12.00;99.90;;;;;;4956937;28;20188;-65
2023/05/24 06:57:27;;;;;;;9.02;3.53;;;12.10;99.90;;;;;;4961641;28;20332;-66
2023/05/24 06:59:52;;;;;;;8.10;2.97;;;12.10;99.90;;;;;;4950816;28;20177;-67
2023/05/24 07:02:22;;;;;;;9.25;2.47;;;12.20;99.90;;;;;;4951948;29;20177;-64
2023/05/24 07:04:48;;;;;;;5.72;2.20;;;12.20;99.90;;;;;;4958511;28;20173;-64
2023/05/24 07:07:14;;;;;;;5.80;2.63;;;12.30;99.90;;;;;;4953186;28;20184;-64
2023/05/24 07:09:43;;;;;;;7.57;2.67;;;12.40;99.90;;;;;;4953388;28;20270;-65
2023/05/24 07:12:09;;;;;;;8.57;2.90;;;12.50;99.90;;;;;;4958914;28;20211;-65
2023/05/24 07:17:00;;;;;;;8.05;3.25;;;12.70;99.90;;;;;;5438348;22;20243;-65
2023/05/24 07:19:28;;;;;;;9.20;3.00;;;12.90;99.90;;;;;;4975494;28;20218;-65
2023/05/24 07:21:56;;;;;;;7.78;2.78;;;13.00;99.90;;;;;;4971389;28;20180;-66
2023/05/24 07:24:24;;;;;;;8.63;2.88;;;13.00;99.90;;;;;;4958798;28;20169;-67
2023/05/24 07:26:52;;;;;;;7.75;3.10;;;13.10;99.90;;;;;;4965328;28;20176;-67
2023/05/24 07:29:22;;;;;;;8.27;3.03;;;13.20;99.90;;;;;;4977420;28;20196;-65
2023/05/24 07:31:50;;;;;;;8.70;3.05;;;13.20;99.90;;;;;;4973860;28;20271;-65
2023/05/24 07:34:17;;;;;;;5.30;2.47;;;13.20;99.90;;;;;;4977351;28;20199;-65
2023/05/24 07:36:44;;;;;;;7.10;2.70;;;13.30;99.90;;;;;;4977661;28;20192;-65
2023/05/24 07:39:10;;;;;;;6.50;2.20;;;13.30;99.90;;;;;;4977247;28;20330;-65
2023/05/24 07:41:38;;;;;;;7.43;2.40;;;13.30;99.90;;;;;;4977494;28;20244;-65
2023/05/24 07:44:06;;;;;;;7.15;2.55;;;13.30;99.90;;;;;;4977240;28;20283;-67
2023/05/24 07:46:34;;;;;;;5.43;2.45;;;13.30;99.90;;;;;;4977171;28;20184;-66
2023/05/24 07:49:00;;;;;;;9.13;3.03;;;13.30;99.90;;;;;;4977249;28;20176;-65
2023/05/24 07:51:28;;;;;;;8.63;2.35;;;13.40;99.90;;;;;;4974178;28;20237;-66
2023/05/24 07:53:53;;;;;;;4.60;2.08;;;13.40;99.90;;;;;;4974142;28;20211;-67
2023/05/24 07:56:20;;;;;;;5.45;2.38;;;13.50;99.90;;;;;;4973791;28;20462;-66
2023/05/24 07:58:46;;;;;;;6.53;2.40;;;13.60;99.90;;;;;;4963883;28;20200;-66
2023/05/24 08:01:14;;;;;;;8.45;2.63;;;13.60;99.90;;;;;;4987295;28;20271;-66
2023/05/24 08:03:40;;;;;;;8.85;2.22;;;13.60;99.90;;;;;;4971040;28;20184;-66
2023/05/24 08:06:05;;;;;;;4.70;2.00;;;13.70;99.90;;;;;;4976336;28;20291;-67
2023/05/24 08:08:31;;;;;;;8.10;2.53;;;13.70;99.90;;;;;;4969959;28;20254;-66
2023/05/24 08:10:56;;;;;;;4.63;2.10;;;13.70;99.90;;;;;;4975635;28;20214;-66
2023/05/24 08:13:22;;;;;;;4.95;2.08;;;13.80;99.90;;;;;;4972907;28;20209;-64
2023/05/24 08:15:50;;;;;;;5.15;2.15;;;13.90;99.90;;;;;;4957443;28;20181;-65
2023/05/24 08:18:16;;;;;;;6.35;1.92;;;13.90;99.90;;;;;;4973286;28;20173;-66
2023/05/24 08:20:41;;;;;;;7.18;2.20;;;14.00;99.90;;;;;;4960071;28;20215;-66
2023/05/24 08:23:09;;;;;;;8.20;2.80;;;14.20;99.90;;;;;;4974753;28;20180;-66
2023/05/24 08:25:37;;;;;;;6.85;2.83;;;14.30;99.90;;;;;;4973016;28;20192;-66
2023/05/24 08:28:03;;;;;;;7.25;2.15;;;14.40;99.90;;;;;;4971813;28;20200;-66
2023/05/24 08:30:29;;;;;;;6.85;2.13;;;14.50;99.90;;;;;;4968133;28;20279;-65
2023/05/24 08:32:57;;;;;;;6.53;2.55;;;14.60;99.90;;;;;;4976234;28;20195;-66
2023/05/24 08:35:25;;;;;;;5.13;2.00;;;14.60;99.90;;;;;;4977104;28;20291;-66
2023/05/24 08:37:50;;;;;;;6.55;2.70;;;14.60;99.90;;;;;;4968396;28;20240;-66
2023/05/24 08:40:16;;;;;;;8.48;2.92;;;14.60;99.90;;;;;;4957451;28;20215;-65
2023/05/24 08:42:46;;;;;;;7.63;3.05;;;14.60;99.90;;;;;;4975229;28;20226;-65
2023/05/24 08:45:18;;;;;;;5.47;2.30;;;14.60;99.90;;;;;;4975828;28;20199;-66
2023/05/24 08:47:45;;;;;;;5.93;2.15;;;14.60;99.90;;;;;;4975751;28;20242;-66
2023/05/24 08:50:12;;;;;;;7.93;2.55;;;14.60;99.90;;;;;;4972789;28;20236;-67
2023/05/24 08:52:39;;;;;;;7.78;2.13;;;14.60;99.90;;;;;;4985655;28;20250;-66
2023/05/24 08:55:08;;;;;;;7.20;2.22;;;14.60;99.90;;;;;;4975740;28;20398;-67
2023/05/24 08:57:38;;;;;;;6.07;1.90;;;14.70;99.90;;;;;;4970775;28;20183;-66
2023/05/24 09:00:10;;;;;;;4.63;1.90;;;14.70;99.90;;;;;;4989985;28;20206;-66
2023/05/24 09:02:40;;;;;;;8.98;2.40;;;14.80;99.90;;;;;;4975453;28;20206;-67
2023/05/24 09:05:15;;;;;;;4.20;1.98;;;14.80;99.90;;;;;;4975538;28;20186;-65
2023/05/24 09:07:48;;;;;;;8.75;2.60;;;14.80;99.90;;;;;;4975110;28;20180;-66
2023/05/24 09:10:14;;;;;;;8.93;2.60;;;14.80;99.90;;;;;;4975041;28;20183;-66
2023/05/24 09:12:46;;;;;;;6.97;3.00;;;14.80;99.90;;;;;;4972511;28;20299;-67
2023/05/24 09:15:14;;;;;;;7.00;2.33;;;14.90;99.90;;;;;;4983819;28;20199;-66
2023/05/24 09:17:40;;;;;;;5.88;2.20;;;14.90;99.90;;;;;;4968243;28;20192;-66
2023/05/24 09:20:09;;;;;;;5.43;2.25;;;15.00;99.90;;;;;;4975060;28;20179;-66
2023/05/24 09:22:37;;;;;;;7.78;2.95;;;15.00;99.90;;;;;;4972468;28;20204;-66
2023/05/24 09:25:04;;;;;;;10.02;2.63;;;15.00;99.90;;;;;;4975827;28;20187;-66
2023/05/24 09:27:41;;;;;;;6.05;2.50;;;15.00;99.90;;;;;;4970705;28;20180;-66
2023/05/24 09:30:14;;;;;;;5.90;2.78;;;15.00;99.90;;;;;;4956803;28;20212;-66
2023/05/24 09:32:40;;;;;;;3.85;2.10;;;15.10;99.90;;;;;;4958218;28;20192;-66
2023/05/24 09:35:11;;;;;;;6.60;2.70;;;15.20;99.90;;;;;;4976062;28;20187;-66
2023/05/24 09:37:40;;;;;;;8.68;3.08;;;15.20;99.90;;;;;;4976327;28;20419;-66
2023/05/24 09:40:17;;;;;;;11.80;3.20;;;15.30;99.90;;;;;;4979885;28;20271;-66
2023/05/24 09:42:45;;;;;;;7.97;2.72;;;15.40;99.90;;;;;;4979671;28;20211;-66
2023/05/24 09:45:13;;;;;;;10.25;3.20;;;15.40;99.90;;;;;;4979383;28;20172;-65
2023/05/24 09:47:41;;;;;;;6.20;2.55;;;15.50;99.90;;;;;;4979303;28;20227;-65
2023/05/24 09:50:12;;;;;;;4.05;2.20;;;15.60;99.90;;;;;;4979318;28;20208;-66
2023/05/24 09:52:38;;;;;;;6.18;2.08;;;15.60;99.90;;;;;;4979405;28;20200;-66
2023/05/24 09:55:18;;;;;;;7.03;2.60;;;15.60;99.90;;;;;;4979055;28;20254;-66
2023/05/24 09:57:48;;;;;;;6.47;2.00;;;15.70;99.90;;;;;;4975694;28;20428;-66
2023/05/24 10:00:21;;;;;;;6.68;2.45;;;15.80;99.90;;;;;;4975493;28;20185;-65
2023/05/24 10:03:03;;;;;;;5.43;2.15;;;15.90;99.90;;;;;;4966552;28;20214;-65
2023/05/24 10:05:29;;;;;;;4.97;2.40;;;16.10;99.90;;;;;;4971867;28;20195;-66
2023/05/24 10:07:56;;;;;;;6.63;2.08;;;16.20;99.90;;;;;;4979072;28;20267;-66
2023/05/24 10:10:23;;;;;;;7.88;3.30;;;16.40;99.90;;;;;;4978878;28;20215;-66
2023/05/24 10:12:50;;;;;;;6.70;2.50;;;16.60;99.90;;;;;;4978532;28;20200;-65
2023/05/24 10:15:16;;;;;;;7.65;2.53;;;16.80;99.90;;;;;;4978591;28;20211;-66
2023/05/24 10:17:44;;;;;;;6.22;2.25;;;17.00;99.90;;;;;;4977300;28;20220;-67
2023/05/24 10:20:11;;;;;;;5.75;2.05;;;17.10;99.90;;;;;;4975126;28;20259;-65
2023/05/24 10:22:43;;;;;;;6.03;2.30;;;17.10;99.90;;;;;;4978373;28;20211;-65
2023/05/24 10:25:15;;;;;;;5.78;2.17;;;17.10;99.90;;;;;;4972622;28;20169;-66
2023/05/24 10:27:42;;;;;;;5.78;2.42;;;17.10;99.90;;;;;;4969369;28;20181;-66
2023/05/24 10:30:23;;;;;;;6.22;2.40;;;17.10;99.90;;;;;;4975222;28;20328;-66
2023/05/24 10:32:50;;;;;;;5.78;2.50;;;17.10;99.90;;;;;;4977057;28;20265;-65
2023/05/24 10:35:18;;;;;;;6.05;2.40;;;17.20;99.90;;;;;;4974369;28;20200;-66
2023/05/24 10:37:46;;;;;;;6.45;2.50;;;17.20;99.90;;;;;;4971514;28;20188;-67
2023/05/24 10:40:19;;;;;;;7.07;3.17;;;17.30;99.90;;;;;;4974110;28;20184;-66
2023/05/24 10:42:49;;;;;;;6.07;2.63;;;17.40;99.90;;;;;;4958971;28;20195;-66
2023/05/24 10:45:23;;;;;;;4.93;2.70;;;17.50;99.90;;;;;;4959328;29;20192;-66
2023/05/24 10:47:52;;;;;;;6.50;3.00;;;17.70;99.90;;;;;;4968151;28;20235;-66
2023/05/24 10:50:21;;;;;;;6.20;2.88;;;17.80;99.90;;;;;;4977175;28;20222;-66
2023/05/24 10:52:49;;;;;;;6.38;2.88;;;17.80;99.90;;;;;;4966794;28;20196;-65
2023/05/24 10:55:18;;;;;;;6.60;2.65;;;17.80;99.90;;;;;;4971362;28;20173;-66
2023/05/24 10:57:44;;;;;;;7.40;2.90;;;17.80;99.90;;;;;;4975578;28;20196;-66
2023/05/24 11:00:19;;;;;;;7.50;2.80;;;17.70;99.90;;;;;;4960608;28;20212;-66
2023/05/24 11:02:48;;;;;;;4.80;2.72;;;17.60;99.90;;;;;;4959766;28;20202;-66
2023/05/24 11:05:14;;;;;;;6.38;2.72;;;17.60;99.90;;;;;;4961941;28;20283;-65
2023/05/24 11:07:43;;;;;;;5.05;2.83;;;17.60;99.90;;;;;;4974532;28;20291;-66
2023/05/24 11:10:17;;;;;;;4.82;3.03;;;17.70;99.90;;;;;;4968403;28;20263;-66
2023/05/24 11:12:43;;;;;;;7.78;3.20;;;17.80;99.90;;;;;;4965557;28;20353;-66
2023/05/24 11:15:10;;;;;;;6.53;3.00;;;17.90;99.90;;;;;;4965583;28;20249;-66
2023/05/24 11:18:16;;;;;;;7.07;2.88;;;18.00;99.90;;;;;;4972285;28;20279;-66
2023/05/24 11:20:46;;;;;;;7.65;2.90;;;18.00;99.90;;;;;;4958592;28;20187;-66
2023/05/24 11:23:15;;;;;;;6.50;2.92;;;18.10;99.90;;;;;;4965521;28;20188;-66
2023/05/24 11:25:47;;;;;;;7.10;2.65;;;18.00;99.90;;;;;;4983341;28;20278;-67
2023/05/24 11:28:15;;;;;;;9.40;3.50;;;18.10;99.90;;;;;;4997487;28;20187;-65
2023/05/24 11:30:47;;;;;;;8.88;3.15;;;18.10;99.90;;;;;;4959244;28;20205;-66
2023/05/24 11:33:17;;;;;;;5.35;2.75;;;18.10;99.90;;;;;;4973064;28;20208;-66
2023/05/24 11:35:49;;;;;;;4.72;2.60;;;18.10;99.90;;;;;;4977286;28;20167;-66
2023/05/24 11:38:15;;;;;;;5.32;2.65;;;18.00;99.90;;;;;;4977864;28;20200;-66
2023/05/24 11:40:45;;;;;;;9.05;4.60;;;18.00;99.90;;;;;;4977468;28;20466;-67
2023/05/24 11:43:19;;;;;;;7.28;4.50;;;17.90;99.90;;;;;;4977552;28;20196;-66
2023/05/24 11:45:47;;;;;;;6.70;4.32;;;18.00;99.90;;;;;;4977391;28;20223;-67
2023/05/24 11:48:14;;;;;;;8.57;4.63;;;18.10;99.90;;;;;;4977498;28;20175;-66
2023/05/24 11:50:42;;;;;;;10.95;4.80;;;18.30;99.90;;;;;;4976997;28;20179;-67
2023/05/24 11:53:16;;;;;;;11.45;5.03;;;18.50;99.90;;;;;;4977133;28;20355;-67
2023/05/24 11:55:42;;;;;;;8.45;4.70;;;18.60;99.90;;;;;;4973164;28;20206;-66
2023/05/24 11:58:22;;;;;;;7.15;4.55;;;18.70;99.90;;;;;;4973637;28;20224;-66
2023/05/24 12:00:48;;;;;;;7.82;5.00;;;18.70;99.90;;;;;;4976806;28;20195;-66
2023/05/24 12:03:14;;;;;;;6.38;4.15;;;18.60;99.90;;;;;;4976308;28;20266;-66
2023/05/24 12:05:42;;;;;;;9.15;4.38;;;18.50;99.90;;;;;;4974135;28;20258;-66
2023/05/24 12:08:14;;;;;;;7.30;3.78;;;18.40;99.90;;;;;;4976235;28;20311;-66
2023/05/24 12:10:41;;;;;;;7.40;3.80;;;18.20;99.60;;;;;;4976917;28;20188;-66
2023/05/24 12:13:22;;;;;;;7.25;3.58;;;18.00;99.90;;;;;;4976482;28;20196;-66
2023/05/24 12:15:53;;;;;;;8.40;3.70;;;17.90;99.50;;;;;;4975454;28;20231;-66
2023/05/24 12:18:26;;;;;;;6.35;3.28;;;17.70;99.50;;;;;;4966236;28;20255;-66
2023/05/24 12:20:52;;;;;;;7.03;3.47;;;17.60;99.60;;;;;;4976555;28;20184;-65
2023/05/24 12:23:24;;;;;;;5.97;3.00;;;17.40;99.80;;;;;;4975817;28;20413;-66
2023/05/24 12:26:00;;;;;;;8.48;3.55;;;17.30;99.30;;;;;;4973158;28;20293;-66
2023/05/24 12:28:26;;;;;;;6.07;3.00;;;17.20;99.30;;;;;;4969044;28;20279;-66
2023/05/24 12:30:56;;;;;;;7.78;3.67;;;17.10;99.60;;;;;;4962092;28;20184;-66
2023/05/24 12:33:26;;;;;;;7.20;3.67;;;16.90;99.30;;;;;;4975767;28;20210;-65
2023/05/24 12:35:52;;;;;;;6.95;3.67;;;16.90;99.50;;;;;;4975884;28;20184;-66
2023/05/24 12:38:24;;;;;;;6.47;3.50;;;16.80;99.70;;;;;;4970207;28;20195;-67
2023/05/24 12:40:53;;;;;;;7.38;4.00;;;16.70;99.70;;;;;;4972950;28;20180;-65
2023/05/24 12:43:19;;;;;;;6.80;3.72;;;16.60;99.80;;;;;;4976867;28;20199;-65
2023/05/24 12:45:45;;;;;;;6.60;3.45;;;16.60;99.90;;;;;;4975751;28;20228;-65
2023/05/24 12:48:13;;;;;;;8.90;3.40;;;16.60;99.90;;;;;;4976438;28;20183;-64
2023/05/24 12:50:42;;;;;;;8.45;3.50;;;16.60;99.90;;;;;;4975018;28;20198;-65
2023/05/24 12:53:07;;;;;;;5.80;3.08;;;16.60;99.80;;;;;;4972053;28;20204;-66
2023/05/24 12:55:36;;;;;;;6.55;2.83;;;16.60;99.80;;;;;;4971226;28;20207;-65
2023/05/24 12:58:06;;;;;;;6.25;2.83;;;16.60;99.80;;;;;;4968144;28;20181;-65